createdAt,value
2017-12-20T00:01:38.540Z,92.66
2017-12-20T00:04:08.331Z,92.75
2017-12-20T00:06:38.109Z,92.63
2017-12-20T00:09:07.958Z,92.68
2017-12-20T00:11:37.782Z,92.63
2017-12-20T00:14:07.595Z,92.63
2017-12-20T00:16:37.391Z,92.57
2017-12-20T00:19:07.218Z,92.52
2017-12-20T00:21:36.826Z,92.59
2017-12-20T00:24:06.432Z,92.55
2017-12-20T00:26:36.277Z,92.55
2017-12-20T00:29:06.072Z,92.52
2017-12-20T00:31:35.851Z,92.51
2017-12-20T00:34:05.123Z,92.52
2017-12-20T00:36:34.347Z,92.53
2017-12-20T00:39:03.442Z,92.51
2017-12-20T00:41:32.659Z,92.51
2017-12-20T00:44:02.435Z,92.55
2017-12-20T00:46:32.053Z,92.53
2017-12-20T00:49:01.867Z,92.49
2017-12-20T00:51:31.720Z,92.51
2017-12-20T00:54:01.490Z,92.55
2017-12-20T00:56:31.280Z,92.49
2017-12-20T01:04:43.083Z,92.50
2017-12-20T01:07:14.848Z,92.50
2017-12-20T01:09:47.009Z,92.48
2017-12-20T01:12:20.581Z,92.49
2017-12-20T01:15:02.828Z,92.52
2017-12-20T01:17:50.399Z,92.51
2017-12-20T01:20:51.124Z,92.52
2017-12-20T01:23:23.286Z,92.52
2017-12-20T01:25:54.329Z,92.54
2017-12-20T01:28:25.420Z,92.52
2017-12-20T01:30:56.404Z,92.54
2017-12-20T01:33:27.440Z,92.58
2017-12-20T01:35:58.574Z,92.55
2017-12-20T01:38:28.587Z,92.52
2017-12-20T01:40:58.096Z,92.52
2017-12-20T01:43:27.940Z,92.52
2017-12-20T01:45:57.739Z,92.54
2017-12-20T01:48:27.585Z,92.52
2017-12-20T01:50:57.379Z,92.52
2017-12-20T01:53:27.199Z,92.49
2017-12-20T01:55:56.702Z,92.49
2017-12-20T01:58:26.251Z,92.50
2017-12-20T02:00:56.115Z,92.49
2017-12-20T02:03:26.179Z,92.48
2017-12-20T02:05:56.162Z,92.46
2017-12-20T02:08:25.960Z,92.46
2017-12-20T02:10:55.783Z,92.47
2017-12-20T02:13:25.287Z,92.48
2017-12-20T02:15:55.133Z,92.48
2017-12-20T02:18:24.987Z,92.47
2017-12-20T02:20:54.832Z,92.46
2017-12-20T02:23:24.371Z,92.45
2017-12-20T02:25:54.251Z,92.53
2017-12-20T02:28:23.758Z,92.77
2017-12-20T02:30:53.312Z,92.61
2017-12-20T02:33:31.355Z,92.62
2017-12-20T02:36:00.920Z,92.47
2017-12-20T02:38:39.164Z,92.50
2017-12-20T02:41:09.428Z,92.58
2017-12-20T02:43:41.773Z,92.50
2017-12-20T02:46:11.328Z,92.50
2017-12-20T02:48:40.862Z,92.54
2017-12-20T02:51:10.391Z,92.58
2017-12-20T02:53:40.276Z,92.61
2017-12-20T02:56:09.804Z,92.47
2017-12-20T02:58:39.391Z,92.61
2017-12-20T03:01:08.924Z,92.65
2017-12-20T03:03:38.242Z,92.49
2017-12-20T03:06:07.801Z,92.48
2017-12-20T03:08:37.340Z,92.54
2017-12-20T03:11:06.944Z,92.54
2017-12-20T03:13:52.058Z,92.62
2017-12-20T03:16:41.205Z,92.51
2017-12-20T03:19:29.362Z,92.52
2017-12-20T03:22:19.138Z,92.48
2017-12-20T03:25:07.502Z,92.49
2017-12-20T03:27:57.372Z,92.46
2017-12-20T03:30:45.697Z,92.44
2017-12-20T03:33:34.688Z,92.51
2017-12-20T03:36:23.760Z,92.43
2017-12-20T03:39:13.673Z,92.48
2017-12-20T03:42:02.046Z,92.48
2017-12-20T03:44:42.699Z,92.44
2017-12-20T03:47:12.729Z,92.44
2017-12-20T03:49:42.535Z,92.48
2017-12-20T03:52:12.097Z,92.45
2017-12-20T03:54:41.612Z,92.45
2017-12-20T03:57:11.472Z,92.45
2017-12-20T03:59:41.326Z,92.42
2017-12-20T04:02:11.156Z,92.44
2017-12-20T04:04:40.963Z,92.43
2017-12-20T04:07:10.836Z,92.41
2017-12-20T04:09:40.617Z,92.42
2017-12-20T04:12:10.446Z,92.41
2017-12-20T04:14:40.252Z,92.40
2017-12-20T04:17:10.150Z,92.41
2017-12-20T04:19:39.938Z,92.40
2017-12-20T04:22:12.380Z,92.44
2017-12-20T04:24:42.392Z,92.43
2017-12-20T04:27:12.054Z,92.46
2017-12-20T04:29:41.864Z,92.41
2017-12-20T04:32:13.809Z,92.39
2017-12-20T04:34:44.487Z,92.45
2017-12-20T04:37:16.187Z,92.40
2017-12-20T04:39:49.477Z,92.51
2017-12-20T04:42:19.271Z,92.48
2017-12-20T04:44:49.084Z,92.52
2017-12-20T04:47:18.959Z,92.49
2017-12-20T04:49:49.838Z,92.48
2017-12-20T04:52:19.634Z,92.45
2017-12-20T04:54:49.434Z,92.58
2017-12-20T04:57:19.354Z,92.52
2017-12-20T04:59:49.507Z,92.44
2017-12-20T05:02:20.812Z,92.47
2017-12-20T05:04:50.708Z,92.51
2017-12-20T05:07:20.488Z,92.56
2017-12-20T05:09:50.308Z,92.53
2017-12-20T05:12:20.112Z,92.45
2017-12-20T05:14:49.943Z,92.47
2017-12-20T05:17:19.750Z,92.56
2017-12-20T05:19:49.605Z,92.50
2017-12-20T05:22:19.429Z,92.44
2017-12-20T05:24:49.272Z,92.51
2017-12-20T05:27:19.091Z,92.65
2017-12-20T05:29:54.697Z,92.56
2017-12-20T05:32:24.514Z,92.54
2017-12-20T05:34:54.346Z,92.52
2017-12-20T05:37:24.117Z,92.50
2017-12-20T05:39:53.963Z,92.54
2017-12-20T05:42:23.739Z,92.53
2017-12-20T05:44:53.574Z,92.64
2017-12-20T05:47:23.396Z,92.65
2017-12-20T05:49:53.265Z,92.66
2017-12-20T05:52:23.089Z,92.66
2017-12-20T05:54:52.862Z,92.64
2017-12-20T05:57:22.709Z,92.65
2017-12-20T05:59:52.483Z,92.68
2017-12-20T06:02:22.274Z,92.59
2017-12-20T06:04:52.103Z,92.54
2017-12-20T06:07:21.915Z,92.60
2017-12-20T06:09:52.268Z,92.62
2017-12-20T06:12:22.093Z,92.66
2017-12-20T06:14:51.884Z,92.66
2017-12-20T06:17:21.681Z,92.72
2017-12-20T06:19:51.517Z,92.59
2017-12-20T06:22:21.344Z,92.61
2017-12-20T06:24:51.131Z,92.69
2017-12-20T06:27:21.024Z,92.65
2017-12-20T06:29:50.811Z,92.67
2017-12-20T06:32:20.617Z,92.59
2017-12-20T06:34:50.441Z,92.58
2017-12-20T06:37:20.240Z,92.68
2017-12-20T06:39:50.077Z,92.59
2017-12-20T06:42:19.867Z,92.61
2017-12-20T06:44:49.665Z,92.71
2017-12-20T06:47:19.484Z,92.71
2017-12-20T06:49:49.280Z,92.58
2017-12-20T06:52:19.035Z,92.67
2017-12-20T06:54:48.819Z,92.65
2017-12-20T06:57:18.656Z,92.58
2017-12-20T06:59:48.284Z,92.62
2017-12-20T07:02:18.087Z,92.57
2017-12-20T07:04:47.919Z,92.57
2017-12-20T07:07:17.763Z,92.51
2017-12-20T07:09:47.546Z,92.58
2017-12-20T07:12:17.320Z,92.56
2017-12-20T07:14:47.151Z,92.53
2017-12-20T07:17:16.959Z,92.52
2017-12-20T07:19:46.798Z,92.55
2017-12-20T07:22:16.611Z,92.59
2017-12-20T07:24:46.390Z,92.54
2017-12-20T07:27:16.221Z,92.48
2017-12-20T07:29:46.123Z,92.58
2017-12-20T07:32:15.958Z,92.68
2017-12-20T07:34:45.783Z,92.60
2017-12-20T07:37:15.664Z,92.68
2017-12-20T07:39:45.457Z,92.63
2017-12-20T07:42:15.319Z,92.68
2017-12-20T07:44:45.170Z,92.70
2017-12-20T07:47:14.987Z,92.61
2017-12-20T07:49:44.639Z,92.57
2017-12-20T07:52:14.492Z,92.58
2017-12-20T07:54:44.275Z,92.62
2017-12-20T07:57:14.062Z,92.62
2017-12-20T07:59:43.914Z,92.57
2017-12-20T08:02:13.730Z,92.52
2017-12-20T08:04:43.554Z,92.57
2017-12-20T08:07:13.355Z,92.60
2017-12-20T08:09:43.190Z,92.52
2017-12-20T08:12:15.619Z,92.65
2017-12-20T08:14:45.462Z,92.56
2017-12-20T08:17:15.287Z,92.67
2017-12-20T08:19:45.123Z,92.49
2017-12-20T08:22:14.922Z,92.50
2017-12-20T08:24:44.801Z,92.47
2017-12-20T08:27:14.591Z,92.50
2017-12-20T08:29:44.268Z,92.52
2017-12-20T08:32:14.071Z,92.63
2017-12-20T08:34:43.871Z,92.64
2017-12-20T08:37:13.788Z,92.50
2017-12-20T08:39:43.600Z,92.50
2017-12-20T08:42:13.454Z,92.54
2017-12-20T08:44:43.234Z,92.50
2017-12-20T08:47:13.066Z,92.57
2017-12-20T08:49:42.907Z,92.51
2017-12-20T08:52:12.755Z,92.58
2017-12-20T08:54:42.548Z,92.48
2017-12-20T08:57:12.388Z,92.54
2017-12-20T08:59:42.227Z,92.43
2017-12-20T09:02:12.026Z,92.50
2017-12-20T09:04:41.860Z,92.50
2017-12-20T09:07:11.659Z,92.52
2017-12-20T09:09:41.500Z,92.48
2017-12-20T09:12:11.293Z,92.50
2017-12-20T09:14:41.128Z,92.51
2017-12-20T09:17:10.975Z,92.57
2017-12-20T09:19:40.754Z,92.42
2017-12-20T09:22:10.590Z,92.40
2017-12-20T09:24:40.371Z,92.42
2017-12-20T09:27:10.170Z,92.38
2017-12-20T09:29:40.017Z,92.44
2017-12-20T09:32:09.838Z,92.36
2017-12-20T09:34:39.698Z,92.43
2017-12-20T09:37:09.498Z,92.41
2017-12-20T09:39:39.515Z,92.52
2017-12-20T09:42:09.344Z,92.45
2017-12-20T09:44:39.151Z,92.40
2017-12-20T09:47:08.973Z,92.32
2017-12-20T09:49:38.790Z,92.40
2017-12-20T09:52:08.619Z,92.33
2017-12-20T09:54:38.489Z,92.29
2017-12-20T09:57:08.309Z,92.31
2017-12-20T09:59:41.657Z,92.27
2017-12-20T10:02:12.144Z,92.29
2017-12-20T10:04:41.996Z,92.26
2017-12-20T10:07:11.883Z,92.22
2017-12-20T10:09:41.745Z,92.29
2017-12-20T10:12:11.619Z,92.45
2017-12-20T10:14:41.440Z,92.42
2017-12-20T10:17:11.290Z,92.31
2017-12-20T10:19:41.112Z,92.40
2017-12-20T10:22:10.954Z,92.37
2017-12-20T10:24:40.787Z,92.24
2017-12-20T10:27:10.604Z,92.24
2017-12-20T10:29:40.486Z,92.42
2017-12-20T10:32:10.302Z,92.34
2017-12-20T10:34:40.150Z,92.28
2017-12-20T10:37:09.994Z,92.24
2017-12-20T10:39:39.942Z,92.29
2017-12-20T10:42:09.814Z,92.24
2017-12-20T10:44:39.643Z,92.26
2017-12-20T10:47:09.173Z,92.42
2017-12-20T10:49:39.064Z,92.31
2017-12-20T10:52:08.973Z,92.30
2017-12-20T10:54:39.002Z,92.29
2017-12-20T10:57:08.806Z,92.26
2017-12-20T10:59:38.602Z,92.21
2017-12-20T11:02:08.452Z,92.21
2017-12-20T11:04:38.278Z,92.29
2017-12-20T11:07:08.151Z,92.35
2017-12-20T11:09:39.701Z,92.21
2017-12-20T11:12:09.592Z,92.33
2017-12-20T11:14:39.384Z,92.31
2017-12-20T11:17:10.505Z,92.31
2017-12-20T11:19:40.323Z,92.25
2017-12-20T11:22:10.188Z,92.30
2017-12-20T11:24:40.089Z,92.20
2017-12-20T11:27:09.895Z,92.21
2017-12-20T11:29:39.739Z,92.22
2017-12-20T11:32:09.614Z,92.28
2017-12-20T11:34:39.520Z,92.24
2017-12-20T11:37:09.481Z,92.26
2017-12-20T11:39:39.520Z,92.26
2017-12-20T11:42:09.338Z,92.26
2017-12-20T11:44:39.200Z,92.17
2017-12-20T11:47:09.086Z,92.28
2017-12-20T11:49:38.884Z,92.33
2017-12-20T11:52:08.739Z,92.31
2017-12-20T11:54:38.331Z,92.35
2017-12-20T11:57:08.198Z,92.41
2017-12-20T11:59:38.006Z,92.24
2017-12-20T12:02:07.858Z,92.17
2017-12-20T12:04:37.738Z,92.30
2017-12-20T12:07:07.582Z,92.35
2017-12-20T12:09:37.431Z,92.29
2017-12-20T12:12:07.235Z,92.20
2017-12-20T12:14:37.076Z,92.34
2017-12-20T12:17:06.878Z,92.31
2017-12-20T12:19:36.728Z,92.33
2017-12-20T12:22:06.634Z,92.61
2017-12-20T12:24:36.640Z,92.40
2017-12-20T12:27:06.474Z,92.36
2017-12-20T12:29:36.302Z,92.31
2017-12-20T12:32:06.226Z,92.39
2017-12-20T12:34:36.030Z,92.23
2017-12-20T12:37:05.869Z,92.28
2017-12-20T12:39:35.679Z,92.36
2017-12-20T12:42:05.564Z,92.40
2017-12-20T12:44:35.414Z,92.40
2017-12-20T12:47:05.276Z,92.46
2017-12-20T12:49:35.115Z,92.32
2017-12-20T12:52:04.927Z,92.25
2017-12-20T12:54:34.744Z,92.36
2017-12-20T12:57:04.543Z,92.29
2017-12-20T12:59:34.387Z,92.39
2017-12-20T13:02:04.206Z,92.28
2017-12-20T13:04:34.375Z,92.34
2017-12-20T13:07:04.181Z,92.41
2017-12-20T13:09:34.028Z,92.22
2017-12-20T13:12:03.872Z,92.30
2017-12-20T13:14:33.679Z,92.37
2017-12-20T13:17:03.516Z,92.24
2017-12-20T13:19:33.284Z,92.34
2017-12-20T13:22:03.132Z,92.27
2017-12-20T13:24:32.985Z,92.22
2017-12-20T13:27:02.782Z,92.29
2017-12-20T13:29:32.620Z,92.20
2017-12-20T13:32:02.407Z,92.40
2017-12-20T13:34:32.274Z,92.45
2017-12-20T13:37:02.070Z,92.65
2017-12-20T13:39:31.945Z,92.55
2017-12-20T13:42:01.793Z,92.50
2017-12-20T13:44:31.285Z,92.53
2017-12-20T13:47:01.088Z,92.54
2017-12-20T13:49:30.955Z,92.48
2017-12-20T13:52:00.767Z,92.47
2017-12-20T13:54:30.630Z,92.33
2017-12-20T13:57:00.494Z,92.30
2017-12-20T13:59:30.308Z,92.29
2017-12-20T14:02:00.158Z,92.27
2017-12-20T14:04:29.971Z,93.04
2017-12-20T14:06:59.799Z,92.70
2017-12-20T14:09:29.680Z,92.51
2017-12-20T14:11:59.488Z,92.49
2017-12-20T14:14:29.375Z,92.49
2017-12-20T14:16:59.182Z,92.83
2017-12-20T14:19:28.996Z,92.65
2017-12-20T14:21:58.834Z,92.68
2017-12-20T14:24:28.643Z,92.63
2017-12-20T14:26:58.503Z,92.76
2017-12-20T14:29:28.298Z,92.68
2017-12-20T14:31:58.152Z,92.74
2017-12-20T14:34:27.969Z,92.72
2017-12-20T14:36:57.767Z,92.73
2017-12-20T14:39:27.619Z,92.54
2017-12-20T14:41:57.410Z,92.48
2017-12-20T14:44:27.270Z,92.47
2017-12-20T14:46:57.319Z,92.55
2017-12-20T14:49:27.141Z,92.44
2017-12-20T14:51:56.935Z,92.55
2017-12-20T14:54:26.828Z,92.58
2017-12-20T14:56:56.681Z,92.41
2017-12-20T14:59:26.199Z,92.66
2017-12-20T15:01:56.047Z,92.60
2017-12-20T15:04:25.867Z,92.74
2017-12-20T15:06:55.771Z,92.62
2017-12-20T15:09:25.570Z,92.71
2017-12-20T15:11:55.454Z,92.70
2017-12-20T15:14:25.254Z,92.67
2017-12-20T15:16:55.106Z,92.82
2017-12-20T15:19:24.931Z,92.70
2017-12-20T15:21:54.728Z,92.69
2017-12-20T15:24:24.578Z,92.67
2017-12-20T15:26:54.233Z,92.84
2017-12-20T15:29:24.064Z,92.80
2017-12-20T15:31:53.901Z,92.61
2017-12-20T15:34:23.452Z,92.80
2017-12-20T15:36:53.321Z,92.80
2017-12-20T15:39:23.457Z,92.82
2017-12-20T15:41:53.011Z,92.77
2017-12-20T15:44:22.919Z,93.01
2017-12-20T15:46:52.595Z,92.83
2017-12-20T15:49:22.444Z,92.82
2017-12-20T15:51:52.315Z,92.75
2017-12-20T15:54:22.153Z,92.77
2017-12-20T15:56:51.997Z,92.94
2017-12-20T15:59:21.567Z,92.87
2017-12-20T16:01:51.425Z,92.81
2017-12-20T16:04:21.281Z,92.74
2017-12-20T16:06:50.796Z,93.35
2017-12-20T16:09:20.586Z,93.11
2017-12-20T16:11:50.458Z,93.67
2017-12-20T16:14:20.255Z,93.35
2017-12-20T16:16:50.148Z,93.96
2017-12-20T16:19:19.915Z,93.53
2017-12-20T16:21:49.754Z,93.39
2017-12-20T16:24:19.612Z,93.26
2017-12-20T16:26:49.416Z,93.55
2017-12-20T16:29:19.276Z,94.23
2017-12-20T16:31:49.092Z,93.75
2017-12-20T16:34:18.911Z,93.54
2017-12-20T16:36:48.766Z,93.95
2017-12-20T16:39:18.600Z,93.54
2017-12-20T16:41:48.415Z,93.24
2017-12-20T16:44:18.263Z,93.47
2017-12-20T16:46:48.115Z,93.65
2017-12-20T16:49:17.922Z,93.15
2017-12-20T16:51:47.808Z,93.07
2017-12-20T16:54:17.584Z,93.11
2017-12-20T16:56:47.418Z,93.16
2017-12-20T16:59:17.235Z,93.01
2017-12-20T17:01:47.157Z,92.95
2017-12-20T17:04:16.964Z,92.94
2017-12-20T17:06:47.000Z,93.26
2017-12-20T17:09:16.835Z,93.04
2017-12-20T17:11:46.651Z,93.11
2017-12-20T17:14:16.563Z,92.96
2017-12-20T17:16:50.048Z,92.86
2017-12-20T17:19:20.279Z,93.08
2017-12-20T17:21:56.764Z,93.05
2017-12-20T17:24:30.127Z,93.07
2017-12-20T17:27:02.635Z,93.00
2017-12-20T17:29:33.868Z,93.24
2017-12-20T17:32:03.687Z,93.15
2017-12-20T17:34:39.985Z,93.07
2017-12-20T17:37:15.908Z,92.97
2017-12-20T17:39:45.996Z,93.18
2017-12-20T17:42:15.890Z,92.96
2017-12-20T17:44:45.977Z,92.92
2017-12-20T17:47:18.582Z,93.02
2017-12-20T17:52:35.655Z,93.23
2017-12-20T17:55:06.184Z,93.22
2017-12-20T17:57:36.048Z,93.17
2017-12-20T18:00:10.942Z,93.25
2017-12-20T18:03:00.075Z,93.78
2017-12-20T18:05:31.126Z,93.33
2017-12-20T18:08:00.996Z,93.18
2017-12-20T18:10:30.842Z,93.43
2017-12-20T18:13:11.375Z,93.21
2017-12-20T18:15:52.144Z,93.33
2017-12-20T18:18:25.324Z,93.53
2017-12-20T18:20:56.455Z,93.37
2017-12-20T18:23:26.263Z,93.29
2017-12-20T18:26:06.015Z,93.47
2017-12-20T18:28:43.834Z,93.31
2017-12-20T18:31:15.217Z,93.39
2017-12-20T18:33:48.115Z,93.51
2017-12-20T18:36:20.121Z,93.31
2017-12-20T18:38:50.098Z,93.30
2017-12-20T18:41:20.475Z,93.27
2017-12-20T18:43:50.347Z,93.21
2017-12-20T18:46:20.186Z,93.36
2017-12-20T18:48:50.043Z,93.32
2017-12-20T18:51:19.899Z,93.25
2017-12-20T18:53:49.766Z,93.34
2017-12-20T18:56:19.798Z,93.64
2017-12-20T18:58:49.712Z,93.85
2017-12-20T19:01:19.507Z,93.41
2017-12-20T19:04:01.785Z,93.62
2017-12-20T19:06:44.047Z,94.25
2017-12-20T19:09:22.868Z,94.01
2017-12-20T19:12:00.767Z,93.77
2017-12-20T19:14:36.290Z,93.74
2017-12-20T19:17:17.528Z,93.59
2017-12-20T19:19:53.902Z,93.80
2017-12-20T19:22:27.241Z,93.73
2017-12-20T19:24:59.476Z,93.57
2017-12-20T19:27:34.388Z,93.59
2017-12-20T19:30:06.124Z,93.82
2017-12-20T19:32:39.356Z,93.62
2017-12-20T19:35:18.891Z,93.46
2017-12-20T19:37:53.060Z,93.58
2017-12-20T19:40:23.403Z,93.65
2017-12-20T19:42:53.328Z,94.11
2017-12-20T19:45:23.471Z,93.74
2017-12-20T19:47:53.650Z,93.83
2017-12-20T19:50:23.953Z,93.89
2017-12-20T19:52:54.225Z,93.86
2017-12-20T19:55:24.264Z,93.91
2017-12-20T19:57:54.144Z,93.91
2017-12-20T20:00:24.689Z,93.94
2017-12-20T20:02:54.736Z,93.61
2017-12-20T20:05:24.714Z,93.67
2017-12-20T20:07:55.313Z,94.06
2017-12-20T20:10:25.532Z,93.70
2017-12-20T20:12:55.509Z,93.75
2017-12-20T20:15:25.448Z,93.74
2017-12-20T20:17:55.547Z,94.16
2017-12-20T20:20:26.314Z,94.10
2017-12-20T20:22:56.615Z,93.92
2017-12-20T20:25:26.779Z,93.73
2017-12-20T20:27:57.350Z,93.82
2017-12-20T20:30:27.465Z,94.07
2017-12-20T20:32:57.303Z,94.23
2017-12-20T20:35:27.234Z,94.25
2017-12-20T20:37:57.108Z,93.82
2017-12-20T20:40:27.157Z,94.26
2017-12-20T20:42:57.917Z,94.09
2017-12-20T20:45:28.225Z,94.49
2017-12-20T20:47:58.558Z,94.54
2017-12-20T20:50:28.894Z,94.30
2017-12-20T20:52:59.194Z,94.03
2017-12-20T20:55:36.391Z,94.60
2017-12-20T20:58:06.368Z,94.47
2017-12-20T21:00:36.356Z,94.39
2017-12-20T21:03:06.178Z,94.21
2017-12-20T21:05:36.004Z,94.42
2017-12-20T21:08:05.897Z,93.91
2017-12-20T21:10:39.737Z,94.41
2017-12-20T21:13:14.659Z,94.19
2017-12-20T21:19:08.829Z,94.25
2017-12-20T21:21:58.013Z,94.05
2017-12-20T21:24:46.306Z,93.97
2017-12-20T21:27:35.586Z,94.04
2017-12-20T21:30:33.034Z,93.94
2017-12-20T21:33:19.545Z,94.10
2017-12-20T21:39:10.776Z,94.30
2017-12-20T21:41:49.781Z,94.05
2017-12-20T21:44:37.162Z,94.06
2017-12-20T21:47:27.420Z,93.89
2017-12-20T21:50:16.492Z,93.93
2017-12-20T21:53:05.435Z,94.51
2017-12-20T21:58:40.250Z,94.62
2017-12-20T22:01:20.099Z,94.87
2017-12-20T22:03:57.100Z,95.01
2017-12-20T22:06:31.930Z,94.86
2017-12-20T22:09:02.486Z,94.62
2017-12-20T22:11:32.406Z,94.30
2017-12-20T22:14:02.397Z,94.50
2017-12-20T22:16:32.260Z,94.42
2017-12-20T22:19:02.040Z,94.71
2017-12-20T22:21:31.864Z,94.21
2017-12-20T22:24:01.688Z,94.35
2017-12-20T22:26:31.492Z,94.30
2017-12-20T22:29:01.333Z,94.56
2017-12-20T22:31:31.133Z,94.50
2017-12-20T22:34:00.955Z,94.57
2017-12-20T22:36:30.812Z,94.52
2017-12-20T22:39:00.600Z,94.42
2017-12-20T22:41:30.443Z,94.08
2017-12-20T22:44:00.994Z,94.07
2017-12-20T22:46:30.517Z,94.17
2017-12-20T22:49:00.347Z,94.16
2017-12-20T22:51:30.145Z,94.35
2017-12-20T22:53:59.946Z,94.50
2017-12-20T22:56:29.767Z,94.33
2017-12-20T22:58:59.552Z,94.12
2017-12-20T23:01:29.395Z,94.14
2017-12-20T23:03:59.227Z,94.27
2017-12-20T23:06:29.051Z,94.27
2017-12-20T23:08:58.852Z,94.17
2017-12-20T23:11:28.648Z,94.24
2017-12-20T23:13:58.510Z,94.45
2017-12-20T23:16:28.313Z,94.65
2017-12-20T23:18:58.176Z,94.55
2017-12-20T23:21:27.969Z,94.23
2017-12-20T23:23:57.775Z,94.24
2017-12-20T23:26:27.682Z,94.46
2017-12-20T23:28:57.519Z,94.08
2017-12-20T23:31:27.379Z,94.45
2017-12-20T23:33:57.160Z,94.25
2017-12-20T23:36:26.946Z,94.08
2017-12-20T23:38:56.814Z,94.19
2017-12-20T23:41:26.612Z,94.17
2017-12-20T23:43:56.502Z,94.22
2017-12-20T23:46:26.328Z,94.08
2017-12-20T23:48:56.146Z,94.02
2017-12-20T23:51:25.947Z,94.38
2017-12-20T23:53:55.734Z,94.31
2017-12-20T23:56:25.556Z,94.12
2017-12-20T23:58:55.321Z,94.40
